Custom Search

Airport METAR Reports

 

YMAV - Avalon Airport, Australia
Distance from station: 0 0km
Updated: 26/09/2017 20:30
Clear
Clear
 Wind from ENE
Wind: ENE 7 km/h
Temperature: 10°C
Wind Chill: 9°C
Dew Point: 5°C
Humidity: 71%
Barometer: 1015 hPa
Clouds: Clear
Visibility: 10 km
2017/09/26 10:30 YMAV 261030Z AUTO 07004KT 9999 // NCD 10/05 Q1015 RF00.0/000.0
YMML - Melbourne Intl A, Australia
Distance from station: NE 50km
Updated: 26/09/2017 20:30
Clear
Clear
 Wind from NNE
Wind: NNE 9 km/h
Temperature: 10°C
Wind Chill: 9°C
Dew Point: 4°C
Humidity: 67%
Barometer: 1015 hPa
Summary: Clear
Visibility: greater than 10 km
2017/09/26 10:30 YMML 261030Z 03005KT CAVOK 10/04 Q1015 NOSIG
YMEN - Melbourne/Essend, Australia
Distance from station: NE 51km
Updated: 26/09/2017 20:00
Clear
Clear
 Wind from SE
Wind: SE 9 km/h
Temperature: 11°C
Dew Point: 4°C
Humidity: 62%
Barometer: 1015 hPa
Clouds: Clear
Visibility: 10 km
2017/09/26 10:00 YMEN 261000Z AUTO 14005KT 9999 // NCD 11/04 Q1015
 
YWGT - Wangaratta Arp, Australia
Distance from station: NE 241km
Updated: 26/09/2017 20:00
Clear
Clear
 Wind from calm
Wind: Calm
Temperature: 7°C
Dew Point: 5°C
Humidity: 87%
Barometer: 1015 hPa
Clouds: Clear
Visibility: 10 km
2017/09/26 10:00 YWGT 261000Z AUTO 00000KT 9999 // NCD 07/05 Q1015
YMAY - Albury Airport, Australia
Distance from station: NE 308km
Updated: 26/09/2017 20:00
Clear
Clear
 Wind from NNE
Wind: NNE 4 km/h
Temperature: 10°C
Dew Point: 2°C
Humidity: 58%
Barometer: 1016 hPa
Clouds: Clear
Visibility: 10 km
2017/09/26 10:00 YMAY 261000Z AUTO 03002KT 9999 // NCD 10/02 Q1016
YMTG - Mount Gambier, Australia
Distance from station: W 326km
Updated: 26/09/2017 20:00
Mostly cloudy
Mostly cloudy
 Wind from E
Wind: E 9 km/h
Temperature: 10°C
Wind Chill: 9°C
Dew Point: 7°C
Humidity: 82%
Barometer: 1012 hPa
Clouds: Mostly cloudy
Visibility: 10 km
Cloud details: Mostly cloudy 3505 m
2017/09/26 10:00 YMTG 261000Z AUTO 09005KT 9999 // BKN115 10/07 Q1012
 
YNAR - Narrandera, Australia
Distance from station: NNE 413km
Updated: 26/09/2017 20:00

 Wind from SE
Wind: SE 7 km/h
Temperature: 14°C
Dew Point: 4°C
Humidity: 51%
Barometer: 1015 hPa
2017/09/26 10:00 YNAR 261000Z AUTO 13004KT //// // ////// 14/04 Q1015
YSWG - Wagga Wagga(Cv/M, Australia
Distance from station: NE 418km
Updated: 26/09/2017 20:00
Clear
Clear
 Wind from ESE
Wind: ESE 13 km/h
Temperature: 12°C
Dew Point: 2°C
Humidity: 51%
Barometer: 1016 hPa
Clouds: Clear
Visibility: 10 km
2017/09/26 10:00 YSWG 261000Z AUTO 11007KT 9999 // NCD 12/02 Q1016
YCOM - Cooma Snowy Mtns, Australia
Distance from station: ENE 441km
Updated: 26/09/2017 20:00
Clear
Clear
 Wind from NNE
Wind: NNE 17 km/h
Temperature: 4°C
Wind Chill: 0°C
Dew Point: 2°C
Humidity: 87%
Barometer: 1017 hPa
Clouds: Clear
Visibility: 10 km
2017/09/26 10:00 YCOM 261000Z AUTO 03009KT 9999 // NCD 04/02 Q1017
 
YGTH - Griffith Arpt, Australia
Distance from station: NNE 444km
Updated: 26/09/2017 20:00
Clear
Clear
 Wind from ESE
Wind: ESE 13 km/h
Temperature: 14°C
Dew Point: 0°C
Humidity: 39%
Barometer: 1014 hPa
Clouds: Clear
Visibility: 10 km
2017/09/26 10:00 YGTH 261000Z AUTO 12007KT 9999 // NCD 14/00 Q1014
YMLT - Launceston Airpo, Australia
Distance from station: SSE 451km
Updated: 26/09/2017 20:30
Clear
Clear
 Wind from NNW
Wind: NNW 9 km/h
Temperature: 5°C
Wind Chill: 3°C
Dew Point: 2°C
Humidity: 81%
Barometer: 1013 hPa
Clouds: Clear
Visibility: 10 km
2017/09/26 10:30 YMLT 261030Z AUTO 34005KT 9999 // NCD 05/02 Q1013 RF00.0/000.0
YMIA - Mildura Arpt, Australia
Distance from station: NNW 474km
Updated: 26/09/2017 20:00
Clear
Clear
 Wind from E
Wind: E 9 km/h
Temperature: 19°C
Dew Point: 1°C
Humidity: 30%
Barometer: 1010 hPa
Clouds: Clear
Visibility: 10 km
2017/09/26 10:00 YMIA 261000Z AUTO 10005KT 9999 // NCD 19/01 Q1010
 
YMER - Merimbula Arpt, Australia
Distance from station: ENE 494km
Updated: 26/09/2017 20:00
Overcast
Overcast
 Wind from E
Wind: E 6 km/h
Temperature: 11°C
Dew Point: 6°C
Humidity: 72%
Barometer: 1018 hPa
Clouds: Overcast
Visibility: 10 km
Cloud details: Overcast 1341 m
2017/09/26 10:00 YMER 261000Z AUTO 10003KT 9999 // OVC044 11/06 Q1018
YSCB - Canberra (civ/Mi, Australia
Distance from station: NE 518km
Updated: 26/09/2017 20:30
Clear
Clear
 Wind from NE
Wind: NE 15 km/h
Temperature: 10°C
Wind Chill: 8°C
Dew Point: 4°C
Humidity: 67%
Barometer: 1017 hPa
Summary: Clear
Visibility: greater than 10 km
2017/09/26 10:30 YSCB 261030Z 05008KT CAVOK 10/04 Q1017 1830Z
YMHB - Hobart/Tasmania, Australia
Distance from station: SSE 590km
Updated: 26/09/2017 20:30
Partly cloudy
Partly cloudy
 Wind from NNW
Wind: NNW 13 km/h
Temperature: 10°C
Wind Chill: 8°C
Dew Point: 3°C
Humidity: 62%
Barometer: 1014 hPa
Clouds: Partly cloudy
Visibility: 10 km
Cloud details: Partly cloudy 1463 m
2017/09/26 10:30 YMHB 261030Z 33007KT 9999 SCT048 10/03 Q1014